createdAt,value
2022-09-29T00:00:56.540Z,14.43
2022-09-29T00:03:24.883Z,14.56
2022-09-29T00:05:54.858Z,14.71
2022-09-29T00:08:25.701Z,14.52
2022-09-29T00:10:53.967Z,14.59
2022-09-29T00:13:22.349Z,14.52
2022-09-29T00:16:00.988Z,14.72
2022-09-29T00:18:30.508Z,14.64
2022-09-29T00:20:58.390Z,14.57
2022-09-29T00:23:27.247Z,14.57
2022-09-29T00:26:12.968Z,14.65
2022-09-29T00:28:45.567Z,14.64
2022-09-29T00:31:13.917Z,14.63
2022-09-29T00:33:42.013Z,14.55
2022-09-29T00:36:14.857Z,14.70
2022-09-29T00:38:44.347Z,14.32
2022-09-29T00:41:18.246Z,14.42
2022-09-29T00:44:07.910Z,14.22
2022-09-29T00:46:44.655Z,14.38
2022-09-29T00:49:15.756Z,14.28
2022-09-29T00:51:47.592Z,14.35
2022-09-29T00:54:16.873Z,14.80
2022-09-29T00:56:45.460Z,14.59
2022-09-29T00:59:18.928Z,14.59
2022-09-29T01:01:47.181Z,15.06
2022-09-29T01:04:18.524Z,14.78
2022-09-29T01:06:50.746Z,15.04
2022-09-29T01:09:21.032Z,15.44
2022-09-29T01:11:49.377Z,15.49
2022-09-29T01:14:17.779Z,15.11
2022-09-29T01:16:46.056Z,14.45
2022-09-29T01:19:46.034Z,14.33
2022-09-29T01:22:23.166Z,14.09
2022-09-29T01:25:29.158Z,14.34
2022-09-29T01:28:30.237Z,14.83
2022-09-29T01:31:06.962Z,14.99
2022-09-29T01:33:39.739Z,14.49
2022-09-29T01:36:42.867Z,14.07
2022-09-29T01:39:20.108Z,13.95
2022-09-29T01:41:54.535Z,14.52
2022-09-29T01:44:43.617Z,14.92
2022-09-29T01:47:27.547Z,14.45
2022-09-29T01:50:03.905Z,14.17
2022-09-29T01:52:35.036Z,14.15
2022-09-29T01:55:10.809Z,13.83
2022-09-29T01:58:03.039Z,14.27
2022-09-29T02:00:39.607Z,14.51
2022-09-29T02:03:17.726Z,13.86
2022-09-29T02:05:51.327Z,14.60
2022-09-29T02:08:33.128Z,14.91
2022-09-29T02:11:05.197Z,14.99
2022-09-29T02:13:45.617Z,14.63
2022-09-29T02:16:15.956Z,14.58
2022-09-29T02:18:54.076Z,14.67
2022-09-29T02:21:24.334Z,13.96
2022-09-29T02:23:52.890Z,13.92
2022-09-29T02:26:20.789Z,13.88
2022-09-29T02:28:48.857Z,14.40
2022-09-29T02:31:16.992Z,14.64
2022-09-29T02:33:44.799Z,15.07
2022-09-29T02:36:46.798Z,15.01
2022-09-29T02:39:41.185Z,15.21
2022-09-29T02:42:19.558Z,14.81
2022-09-29T02:44:50.357Z,13.96
2022-09-29T02:47:18.107Z,13.80
2022-09-29T02:50:19.848Z,13.51
2022-09-29T02:53:15.819Z,14.20
2022-09-29T02:56:03.017Z,14.21
2022-09-29T02:58:48.109Z,14.60
2022-09-29T03:01:16.903Z,14.36
2022-09-29T03:03:45.010Z,14.14
2022-09-29T03:06:13.937Z,14.32
2022-09-29T03:08:41.636Z,14.19
2022-09-29T03:11:09.687Z,14.75
2022-09-29T03:13:37.363Z,14.43
2022-09-29T03:16:05.216Z,14.35
2022-09-29T03:18:33.403Z,14.54
2022-09-29T03:21:01.177Z,14.34
2022-09-29T03:23:28.949Z,14.28
2022-09-29T03:25:57.064Z,14.48
2022-09-29T03:28:24.748Z,14.82
2022-09-29T03:30:52.458Z,14.41
2022-09-29T03:33:20.528Z,14.50
2022-09-29T03:35:48.359Z,15.03
2022-09-29T03:38:16.116Z,14.40
2022-09-29T03:40:44.237Z,14.67
2022-09-29T03:43:12.097Z,14.76
2022-09-29T03:45:51.361Z,14.98
2022-09-29T03:48:24.130Z,15.05
2022-09-29T03:50:53.979Z,14.58
2022-09-29T03:53:22.066Z,14.96
2022-09-29T03:55:50.770Z,15.10
2022-09-29T03:58:18.936Z,14.77
2022-09-29T04:00:48.523Z,14.63
2022-09-29T04:03:16.639Z,14.33
2022-09-29T04:05:48.320Z,14.60
2022-09-29T04:08:16.686Z,15.07
2022-09-29T04:10:47.038Z,14.71
2022-09-29T04:13:19.673Z,15.01
2022-09-29T04:15:50.757Z,14.83
2022-09-29T04:18:18.478Z,14.60
2022-09-29T04:20:46.218Z,14.60
2022-09-29T04:23:14.608Z,14.51
2022-09-29T04:25:45.599Z,14.82
2022-09-29T04:28:13.728Z,14.83
2022-09-29T04:30:41.830Z,14.98
2022-09-29T04:33:10.107Z,15.15
2022-09-29T04:35:37.779Z,14.87
2022-09-29T04:38:08.068Z,15.26
2022-09-29T04:40:36.511Z,14.88
2022-09-29T04:43:05.198Z,14.81
2022-09-29T04:45:33.674Z,15.13
2022-09-29T04:48:01.759Z,15.05
2022-09-29T04:50:29.729Z,14.91
2022-09-29T04:52:57.837Z,14.79
2022-09-29T04:55:25.830Z,14.70
2022-09-29T04:57:54.107Z,15.31
2022-09-29T05:00:22.415Z,15.02
2022-09-29T05:02:50.242Z,14.78
2022-09-29T05:05:18.182Z,14.85
2022-09-29T05:07:46.262Z,14.90
2022-09-29T05:10:14.027Z,15.07
2022-09-29T05:12:41.953Z,15.10
2022-09-29T05:15:10.458Z,14.98
2022-09-29T05:17:38.140Z,15.06
2022-09-29T05:20:06.427Z,15.00
2022-09-29T05:22:35.588Z,15.12
2022-09-29T05:25:04.765Z,15.51
2022-09-29T05:27:32.468Z,15.23
2022-09-29T05:30:01.175Z,15.09
2022-09-29T05:32:28.999Z,15.28
2022-09-29T05:34:58.457Z,15.25
2022-09-29T05:37:28.579Z,15.43
2022-09-29T05:39:56.587Z,15.25
2022-09-29T05:42:25.807Z,15.22
2022-09-29T05:44:54.474Z,15.61
2022-09-29T05:47:24.562Z,15.11
2022-09-29T05:49:52.551Z,15.30
2022-09-29T05:52:20.708Z,15.12
2022-09-29T05:54:51.304Z,15.33
2022-09-29T05:57:19.499Z,15.01
2022-09-29T05:59:47.545Z,15.18
2022-09-29T06:02:15.973Z,15.05
2022-09-29T06:04:44.096Z,14.75
2022-09-29T06:07:11.808Z,14.56
2022-09-29T06:09:39.759Z,14.89
2022-09-29T06:12:07.779Z,15.02
2022-09-29T06:14:35.656Z,14.82
2022-09-29T06:17:03.401Z,15.03
2022-09-29T06:19:31.427Z,14.80
2022-09-29T06:21:59.117Z,14.66
2022-09-29T06:24:26.828Z,14.71
2022-09-29T06:26:54.945Z,14.44
2022-09-29T06:29:22.765Z,14.47
2022-09-29T06:31:50.911Z,14.44
2022-09-29T06:34:19.109Z,14.50
2022-09-29T06:37:05.396Z,14.30
2022-09-29T06:39:33.528Z,14.31
2022-09-29T06:42:02.086Z,14.48
2022-09-29T06:44:30.974Z,14.22
2022-09-29T06:46:59.279Z,14.26
2022-09-29T06:49:27.188Z,14.01
2022-09-29T06:51:55.144Z,14.22
2022-09-29T06:54:25.311Z,14.06
2022-09-29T06:56:54.269Z,14.17
2022-09-29T06:59:22.289Z,14.22
2022-09-29T07:01:51.561Z,14.44
2022-09-29T07:04:21.275Z,14.30
2022-09-29T07:06:50.072Z,14.22
2022-09-29T07:09:18.640Z,14.25
2022-09-29T07:11:48.763Z,14.48
2022-09-29T07:14:17.781Z,14.20
2022-09-29T07:16:48.624Z,14.25
2022-09-29T07:19:18.586Z,14.30
2022-09-29T07:21:47.787Z,14.11
2022-09-29T07:24:16.042Z,14.68
2022-09-29T07:26:44.454Z,14.65
2022-09-29T07:29:15.616Z,14.50
2022-09-29T07:31:51.399Z,15.01
2022-09-29T07:34:20.879Z,15.04
2022-09-29T07:36:48.982Z,15.30
2022-09-29T07:39:17.296Z,15.22
2022-09-29T07:41:45.648Z,15.58
2022-09-29T07:44:13.959Z,15.61
2022-09-29T07:46:42.081Z,15.36
2022-09-29T07:49:10.312Z,15.21
2022-09-29T07:51:38.182Z,15.41
2022-09-29T07:54:06.307Z,15.55
2022-09-29T07:56:35.603Z,15.68
2022-09-29T07:59:04.429Z,15.44
2022-09-29T08:01:32.975Z,15.66
2022-09-29T08:04:02.626Z,16.27
2022-09-29T08:06:30.734Z,16.63
2022-09-29T08:09:04.671Z,17.13
2022-09-29T08:11:37.681Z,17.55
2022-09-29T08:14:06.159Z,17.94
2022-09-29T08:16:34.974Z,17.88
2022-09-29T08:19:03.639Z,18.48
2022-09-29T08:21:36.550Z,18.90
2022-09-29T08:24:05.828Z,19.06
2022-09-29T08:26:42.888Z,19.32
2022-09-29T08:29:16.922Z,19.36
2022-09-29T08:31:45.962Z,19.53
2022-09-29T08:34:14.865Z,19.09
2022-09-29T08:36:43.646Z,19.16
2022-09-29T08:39:12.317Z,19.34
2022-09-29T08:41:58.576Z,19.77
2022-09-29T08:44:46.540Z,19.11
2022-09-29T08:47:22.898Z,19.04
2022-09-29T08:50:09.836Z,18.75
2022-09-29T08:52:51.423Z,19.33
2022-09-29T08:55:23.006Z,19.02
2022-09-29T08:57:57.888Z,19.17
2022-09-29T09:00:43.829Z,19.31
2022-09-29T09:03:33.857Z,19.48
2022-09-29T09:06:11.329Z,19.95
2022-09-29T09:08:59.640Z,20.15
2022-09-29T09:11:48.542Z,20.31
2022-09-29T09:14:19.943Z,20.87
2022-09-29T09:17:33.021Z,20.75
2022-09-29T09:20:22.557Z,21.61
2022-09-29T09:22:55.219Z,21.53
2022-09-29T09:25:35.308Z,21.33
2022-09-29T09:28:11.753Z,21.62
2022-09-29T09:30:45.547Z,21.93
2022-09-29T09:33:31.574Z,22.50
2022-09-29T09:36:10.996Z,22.60
2022-09-29T09:38:50.318Z,22.46
2022-09-29T09:41:21.895Z,22.25
2022-09-29T09:43:57.053Z,22.26
2022-09-29T09:46:42.308Z,22.69
2022-09-29T09:49:28.366Z,23.07
2022-09-29T09:52:03.250Z,22.69
2022-09-29T09:54:37.216Z,22.82
2022-09-29T09:57:11.462Z,23.12
2022-09-29T09:59:56.700Z,23.53
2022-09-29T10:02:26.272Z,23.79
2022-09-29T10:04:54.995Z,23.73
2022-09-29T10:07:25.483Z,24.11
2022-09-29T10:09:53.452Z,23.97
2022-09-29T10:12:23.418Z,23.93
2022-09-29T10:15:24.521Z,24.52
2022-09-29T10:18:12.306Z,24.86
2022-09-29T10:20:42.029Z,24.94
2022-09-29T10:23:36.220Z,24.76
2022-09-29T10:26:06.970Z,24.63
2022-09-29T10:28:54.596Z,24.83
2022-09-29T10:31:34.617Z,25.52
2022-09-29T10:34:21.660Z,25.59
2022-09-29T10:37:10.308Z,25.68
2022-09-29T10:39:43.447Z,26.01
2022-09-29T10:42:24.703Z,26.08
2022-09-29T10:44:56.208Z,25.81
2022-09-29T10:47:24.349Z,25.11
2022-09-29T10:50:20.106Z,24.76
2022-09-29T10:52:53.149Z,24.62
2022-09-29T10:59:01.741Z,23.96
2022-09-29T11:01:33.308Z,24.29
2022-09-29T11:04:07.656Z,23.84
2022-09-29T11:06:41.646Z,23.19
2022-09-29T11:09:15.990Z,23.35
2022-09-29T11:11:47.265Z,23.20
2022-09-29T11:14:27.494Z,23.59
2022-09-29T11:16:58.229Z,23.03
2022-09-29T11:19:27.281Z,22.65
2022-09-29T11:22:24.584Z,22.67
2022-09-29T11:25:07.672Z,22.63
2022-09-29T11:27:44.865Z,22.30
2022-09-29T11:30:25.220Z,21.71
2022-09-29T11:33:23.954Z,21.12
2022-09-29T11:36:18.743Z,21.17
2022-09-29T11:39:02.216Z,21.24
2022-09-29T11:41:42.313Z,21.15
2022-09-29T11:44:58.386Z,20.78
2022-09-29T11:47:46.143Z,20.27
2022-09-29T11:50:36.324Z,20.68
2022-09-29T11:53:34.983Z,20.54
2022-09-29T11:56:38.186Z,21.00
2022-09-29T11:59:34.224Z,20.21
2022-09-29T12:02:27.811Z,20.14
2022-09-29T12:05:24.746Z,19.70
2022-09-29T12:08:01.771Z,19.65
2022-09-29T12:10:55.754Z,19.58
2022-09-29T12:13:37.905Z,19.54
2022-09-29T12:16:12.115Z,19.32
2022-09-29T12:19:14.506Z,19.76
2022-09-29T12:21:47.085Z,19.88
2022-09-29T12:24:21.779Z,19.62
2022-09-29T12:26:50.952Z,19.53
2022-09-29T12:29:32.854Z,20.05
2022-09-29T12:32:06.824Z,19.57
2022-09-29T12:34:46.414Z,20.13
2022-09-29T12:37:42.625Z,19.48
2022-09-29T12:40:19.792Z,19.71
2022-09-29T12:43:13.125Z,19.89
2022-09-29T12:45:56.755Z,20.23
2022-09-29T12:48:48.916Z,19.31
2022-09-29T12:51:22.724Z,19.01
2022-09-29T12:54:14.413Z,19.41
2022-09-29T12:57:08.665Z,19.39
2022-09-29T12:59:40.673Z,19.78
2022-09-29T13:02:31.766Z,19.64
2022-09-29T13:05:36.826Z,20.02
2022-09-29T13:08:40.297Z,20.45
2022-09-29T13:11:55.946Z,21.11
2022-09-29T13:15:13.210Z,20.95
2022-09-29T13:17:58.745Z,20.70
2022-09-29T13:20:36.244Z,20.73
2022-09-29T13:23:42.775Z,20.63
2022-09-29T13:26:42.784Z,20.50
2022-09-29T13:29:22.889Z,20.51
2022-09-29T13:31:52.213Z,20.10
2022-09-29T13:34:40.575Z,20.75
2022-09-29T13:37:12.754Z,20.45
2022-09-29T13:39:54.335Z,20.31
2022-09-29T13:42:39.462Z,20.18
2022-09-29T13:45:19.794Z,19.93
2022-09-29T13:47:53.104Z,19.04
2022-09-29T13:50:49.344Z,19.25
2022-09-29T13:53:20.445Z,19.24
2022-09-29T13:55:55.554Z,19.47
2022-09-29T13:58:26.678Z,19.44
2022-09-29T14:00:57.985Z,19.23
2022-09-29T14:03:27.515Z,19.18
2022-09-29T14:09:12.843Z,19.60
2022-09-29T14:11:44.034Z,19.72
2022-09-29T14:14:22.551Z,19.85
2022-09-29T14:17:20.500Z,19.61
2022-09-29T14:19:59.185Z,19.26
2022-09-29T14:22:36.336Z,19.43
2022-09-29T14:25:15.239Z,19.67
2022-09-29T14:28:03.987Z,19.68
2022-09-29T14:30:32.801Z,19.83
2022-09-29T14:33:23.875Z,19.89
2022-09-29T14:36:01.455Z,19.69
2022-09-29T14:38:29.210Z,19.77
2022-09-29T14:41:34.324Z,19.74
2022-09-29T14:44:13.720Z,19.68
2022-09-29T14:47:40.936Z,19.61
2022-09-29T14:50:39.446Z,19.82
2022-09-29T14:53:17.545Z,19.50
2022-09-29T14:56:39.584Z,19.81
2022-09-29T14:59:23.016Z,19.87
2022-09-29T15:02:19.326Z,19.63
2022-09-29T15:04:48.295Z,19.67
2022-09-29T15:07:21.243Z,19.19
2022-09-29T15:09:55.767Z,19.03
2022-09-29T15:12:26.827Z,18.93
2022-09-29T15:14:58.037Z,18.87
2022-09-29T15:17:44.567Z,18.87
2022-09-29T15:20:12.707Z,19.24
2022-09-29T15:22:52.891Z,19.37
2022-09-29T15:25:30.087Z,18.92
2022-09-29T15:28:12.807Z,19.33
2022-09-29T15:30:41.681Z,19.35
2022-09-29T15:33:23.024Z,19.61
2022-09-29T15:36:03.986Z,19.64
2022-09-29T15:38:40.188Z,18.49
2022-09-29T15:41:20.292Z,18.15
2022-09-29T15:44:13.464Z,18.46
2022-09-29T15:46:49.617Z,18.23
2022-09-29T15:49:25.854Z,18.95
2022-09-29T15:52:06.383Z,18.91
2022-09-29T15:54:40.648Z,17.75
2022-09-29T15:58:06.084Z,18.09
2022-09-29T16:00:36.887Z,18.46
2022-09-29T16:03:52.188Z,18.05
2022-09-29T16:06:37.490Z,17.63
2022-09-29T16:09:08.653Z,17.57
2022-09-29T16:11:39.236Z,17.72
2022-09-29T16:14:14.847Z,17.44
2022-09-29T16:16:44.964Z,17.36
2022-09-29T16:19:26.925Z,16.71
2022-09-29T16:21:57.777Z,16.19
2022-09-29T16:24:30.435Z,16.92
2022-09-29T16:26:59.341Z,16.15
2022-09-29T16:29:29.574Z,15.82
2022-09-29T16:31:58.458Z,15.72
2022-09-29T16:34:29.193Z,16.51
2022-09-29T16:37:03.133Z,16.80
2022-09-29T16:39:44.664Z,16.31
2022-09-29T16:42:27.289Z,15.48
2022-09-29T16:44:56.224Z,16.27
2022-09-29T16:47:27.893Z,16.17
2022-09-29T16:49:58.155Z,16.01
2022-09-29T16:52:45.801Z,16.06
2022-09-29T16:55:22.344Z,15.85
2022-09-29T16:58:03.570Z,15.22
2022-09-29T17:00:32.024Z,15.20
2022-09-29T17:03:03.554Z,14.92
2022-09-29T17:05:36.315Z,14.91
2022-09-29T17:10:40.176Z,14.97
2022-09-29T17:13:13.681Z,15.03
2022-09-29T17:15:43.246Z,14.80
2022-09-29T17:18:15.193Z,14.38
2022-09-29T17:20:43.053Z,14.60
2022-09-29T17:23:11.875Z,14.32
2022-09-29T17:25:43.188Z,14.08
2022-09-29T17:28:36.518Z,13.95
2022-09-29T17:31:05.337Z,14.07
2022-09-29T17:33:33.468Z,14.46
2022-09-29T17:36:01.464Z,14.44
2022-09-29T17:38:31.910Z,13.53
2022-09-29T17:41:02.650Z,14.11
2022-09-29T17:43:31.616Z,14.22
2022-09-29T17:46:01.396Z,13.99
2022-09-29T17:48:30.678Z,13.30
2022-09-29T17:51:00.073Z,13.70
2022-09-29T17:53:29.500Z,13.21
2022-09-29T17:55:58.533Z,13.09
2022-09-29T17:58:26.574Z,13.44
2022-09-29T18:00:58.254Z,13.32
2022-09-29T18:03:26.536Z,12.79
2022-09-29T18:05:56.841Z,13.11
2022-09-29T18:08:26.551Z,12.81
2022-09-29T18:10:57.117Z,13.12
2022-09-29T18:13:27.924Z,13.14
2022-09-29T18:15:56.689Z,12.82
2022-09-29T18:18:24.855Z,13.03
2022-09-29T18:20:52.757Z,13.24
2022-09-29T18:23:23.314Z,13.31
2022-09-29T18:25:52.132Z,13.24
2022-09-29T18:28:20.786Z,13.34
2022-09-29T18:31:32.558Z,13.15
2022-09-29T18:34:01.443Z,12.84
2022-09-29T18:36:29.677Z,13.28
2022-09-29T18:38:58.054Z,13.33
2022-09-29T18:41:27.115Z,13.17
2022-09-29T18:43:57.526Z,13.13
2022-09-29T18:46:30.086Z,12.89
2022-09-29T18:48:58.025Z,12.32
2022-09-29T18:51:26.504Z,12.75
2022-09-29T18:53:54.804Z,12.73
2022-09-29T18:56:23.124Z,12.73
2022-09-29T18:58:51.059Z,12.66
2022-09-29T19:01:25.404Z,12.55
2022-09-29T19:03:54.069Z,13.02
2022-09-29T19:06:22.655Z,12.64
2022-09-29T19:08:52.409Z,11.88
2022-09-29T19:11:25.555Z,12.41
2022-09-29T19:13:57.504Z,12.08
2022-09-29T19:16:28.257Z,12.47
2022-09-29T19:18:56.867Z,12.82
2022-09-29T19:21:25.176Z,12.84
2022-09-29T19:23:53.305Z,12.88
2022-09-29T19:26:22.795Z,12.55
2022-09-29T19:28:51.062Z,12.79
2022-09-29T19:31:21.240Z,12.49
2022-09-29T19:33:51.206Z,11.76
2022-09-29T19:36:21.467Z,12.50
2022-09-29T19:38:49.705Z,12.84
2022-09-29T19:41:21.448Z,12.79
2022-09-29T19:43:50.743Z,12.76
2022-09-29T19:46:19.610Z,12.64
2022-09-29T19:48:47.663Z,12.45
2022-09-29T19:51:35.494Z,12.07
2022-09-29T19:54:11.402Z,12.28
2022-09-29T19:56:44.282Z,12.12
2022-09-29T19:59:14.248Z,11.73
2022-09-29T20:01:45.868Z,12.17
2022-09-29T20:04:14.694Z,12.56
2022-09-29T20:06:43.363Z,12.74
2022-09-29T20:09:12.225Z,12.92
2022-09-29T20:11:41.210Z,12.83
2022-09-29T20:14:11.892Z,12.74
2022-09-29T20:16:42.303Z,12.76
2022-09-29T20:19:14.172Z,11.95
2022-09-29T20:21:48.394Z,12.25
2022-09-29T20:24:17.983Z,12.61
2022-09-29T20:26:48.353Z,12.60
2022-09-29T20:29:20.994Z,12.40
2022-09-29T20:31:49.853Z,12.63
2022-09-29T20:34:18.782Z,12.63
2022-09-29T20:36:50.869Z,12.60
2022-09-29T20:39:22.107Z,12.32
2022-09-29T20:41:50.183Z,12.71
2022-09-29T20:44:20.134Z,12.78
2022-09-29T20:46:48.383Z,13.12
2022-09-29T20:49:16.142Z,13.50
2022-09-29T20:51:44.415Z,13.37
2022-09-29T20:54:13.477Z,12.86
2022-09-29T20:56:43.964Z,13.01
2022-09-29T20:59:16.993Z,13.00
2022-09-29T21:01:45.303Z,12.62
2022-09-29T21:04:16.567Z,12.67
2022-09-29T21:06:49.036Z,12.82
2022-09-29T21:09:20.311Z,12.81
2022-09-29T21:11:48.803Z,13.22
2022-09-29T21:14:18.966Z,13.32
2022-09-29T21:16:51.603Z,13.05
2022-09-29T21:19:24.075Z,13.18
2022-09-29T21:21:53.486Z,13.37
2022-09-29T21:24:21.364Z,14.08
2022-09-29T21:26:49.182Z,13.78
2022-09-29T21:29:18.615Z,13.85
2022-09-29T21:31:46.638Z,14.44
2022-09-29T21:34:15.367Z,14.17
2022-09-29T21:36:43.685Z,13.90
2022-09-29T21:39:11.896Z,13.96
2022-09-29T21:41:41.771Z,14.04
2022-09-29T21:44:36.224Z,13.98
2022-09-29T21:47:04.215Z,14.10
2022-09-29T21:49:32.256Z,14.27
2022-09-29T21:52:01.963Z,14.44
2022-09-29T21:54:30.566Z,14.28
2022-09-29T21:56:58.732Z,14.75
2022-09-29T21:59:26.455Z,14.90
2022-09-29T22:01:54.383Z,14.43
2022-09-29T22:04:23.320Z,14.83
2022-09-29T22:06:51.491Z,14.97
2022-09-29T22:09:21.374Z,14.88
2022-09-29T22:11:50.474Z,14.56
2022-09-29T22:14:19.045Z,14.19
2022-09-29T22:16:46.994Z,14.38
2022-09-29T22:19:23.872Z,14.50
2022-09-29T22:21:53.624Z,14.31
2022-09-29T22:24:24.077Z,14.32
2022-09-29T22:26:52.234Z,14.16
2022-09-29T22:29:20.548Z,14.28
2022-09-29T22:31:48.773Z,14.72
2022-09-29T22:34:17.114Z,14.58
2022-09-29T22:36:44.974Z,14.72
2022-09-29T22:39:13.166Z,14.74
2022-09-29T22:41:41.346Z,14.62
2022-09-29T22:44:09.504Z,14.36
2022-09-29T22:46:37.875Z,14.31
2022-09-29T22:49:05.903Z,14.53
2022-09-29T22:51:33.782Z,14.37
2022-09-29T22:54:02.193Z,14.40
2022-09-29T22:56:30.264Z,14.55
2022-09-29T22:59:02.917Z,14.99
2022-09-29T23:01:31.441Z,14.91
2022-09-29T23:03:59.499Z,14.86
2022-09-29T23:06:27.575Z,14.93
2022-09-29T23:08:55.917Z,15.07
2022-09-29T23:11:24.927Z,15.01
2022-09-29T23:13:53.105Z,14.85
2022-09-29T23:16:22.030Z,15.49
2022-09-29T23:18:53.583Z,14.72
2022-09-29T23:21:22.768Z,14.80
2022-09-29T23:23:56.324Z,14.86
2022-09-29T23:26:25.834Z,15.18
2022-09-29T23:28:55.420Z,15.83
2022-09-29T23:31:23.944Z,14.74
2022-09-29T23:33:56.143Z,14.84
2022-09-29T23:36:25.243Z,15.12
2022-09-29T23:39:21.503Z,14.87
2022-09-29T23:41:50.973Z,15.42
2022-09-29T23:44:27.882Z,15.39
2022-09-29T23:46:56.771Z,15.00
2022-09-29T23:49:27.553Z,15.04
2022-09-29T23:51:58.203Z,15.15
2022-09-29T23:54:28.322Z,14.89
2022-09-29T23:56:56.962Z,15.20
2022-09-29T23:59:25.802Z,15.28
